createdAt,value
2023-03-26T00:01:50.178Z,17.43
2023-03-26T00:04:59.672Z,16.80
2023-03-26T00:08:05.880Z,16.90
2023-03-26T00:11:17.554Z,13.43
2023-03-26T00:14:30.740Z,9.45
2023-03-26T00:17:37.584Z,14.20
2023-03-26T00:20:46.249Z,15.95
2023-03-26T00:23:53.925Z,11.71
2023-03-26T00:26:59.994Z,11.19
2023-03-26T00:30:08.281Z,15.08
2023-03-26T00:33:17.740Z,12.68
2023-03-26T00:36:29.119Z,12.76
2023-03-26T00:39:41.945Z,9.55
2023-03-26T00:42:48.756Z,7.22
2023-03-26T00:45:58.463Z,7.79
2023-03-26T00:49:05.883Z,8.41
2023-03-26T00:52:14.565Z,8.78
2023-03-26T00:55:21.534Z,9.42
2023-03-26T00:58:27.524Z,9.51
2023-03-26T01:01:36.324Z,9.88
2023-03-26T01:04:43.029Z,8.87
2023-03-26T01:07:52.576Z,9.06
2023-03-26T01:11:07.611Z,12.36
2023-03-26T01:14:21.885Z,16.33
2023-03-26T01:17:34.533Z,16.85
2023-03-26T01:20:54.208Z,15.34
2023-03-26T01:24:09.831Z,17.57
2023-03-26T01:27:35.250Z,17.71
2023-03-26T01:30:55.164Z,17.96
2023-03-26T01:34:17.165Z,15.70
2023-03-26T01:37:44.194Z,12.37
2023-03-26T01:41:12.298Z,12.39
2023-03-26T01:44:35.501Z,14.16
2023-03-26T01:47:46.785Z,13.23
2023-03-26T01:50:56.599Z,12.70
2023-03-26T01:54:07.004Z,11.21
2023-03-26T01:57:37.000Z,11.75
2023-03-26T02:00:57.171Z,13.03
2023-03-26T02:04:19.856Z,11.19
2023-03-26T02:07:38.239Z,10.09
2023-03-26T02:10:49.106Z,8.15
2023-03-26T02:13:59.440Z,8.18
2023-03-26T02:17:06.417Z,10.57
2023-03-26T02:20:19.201Z,11.72
2023-03-26T02:23:30.160Z,12.25
2023-03-26T02:26:47.214Z,13.88
2023-03-26T02:30:05.267Z,13.06
2023-03-26T02:33:15.707Z,12.74
2023-03-26T02:36:27.837Z,12.03
2023-03-26T02:39:38.858Z,9.90
2023-03-26T02:42:53.445Z,8.26
2023-03-26T02:46:03.281Z,6.96
2023-03-26T02:49:32.475Z,7.83
2023-03-26T02:52:41.650Z,9.86
2023-03-26T02:55:47.813Z,13.42
2023-03-26T02:58:54.807Z,14.78
2023-03-26T03:02:03.797Z,14.78
2023-03-26T03:05:14.319Z,9.18
2023-03-26T03:08:21.355Z,5.17
2023-03-26T03:11:46.808Z,5.23
2023-03-26T03:14:53.072Z,5.17
2023-03-26T03:18:02.844Z,6.72
2023-03-26T03:21:11.614Z,8.30
2023-03-26T03:24:18.862Z,8.90
2023-03-26T03:27:28.142Z,7.86
2023-03-26T03:30:43.534Z,8.11
2023-03-26T03:33:59.407Z,8.65
2023-03-26T03:37:08.475Z,8.48
2023-03-26T03:40:23.356Z,8.04
2023-03-26T03:43:30.499Z,7.87
2023-03-26T03:46:54.590Z,7.92
2023-03-26T03:50:04.883Z,8.51
2023-03-26T03:53:16.191Z,8.49
2023-03-26T03:56:27.237Z,7.70
2023-03-26T03:59:58.468Z,6.02
2023-03-26T04:03:09.930Z,5.92
2023-03-26T04:06:20.514Z,5.73
2023-03-26T04:09:31.781Z,6.48
2023-03-26T04:12:42.875Z,6.90
2023-03-26T04:15:54.826Z,7.94
2023-03-26T04:19:02.932Z,9.61
2023-03-26T04:22:12.839Z,9.92
2023-03-26T04:25:33.577Z,11.91
2023-03-26T04:28:54.907Z,11.80
2023-03-26T04:32:09.405Z,13.55
2023-03-26T04:35:20.170Z,17.17
2023-03-26T04:38:44.889Z,22.42
2023-03-26T04:41:53.687Z,23.90
2023-03-26T04:45:03.455Z,21.91
2023-03-26T04:48:14.696Z,21.34
2023-03-26T04:51:27.367Z,20.62
2023-03-26T04:54:39.336Z,20.02
2023-03-26T04:58:03.705Z,19.01
2023-03-26T05:01:32.440Z,16.47
2023-03-26T05:04:39.522Z,12.72
2023-03-26T05:07:49.258Z,8.88
2023-03-26T05:11:00.705Z,6.92
2023-03-26T05:14:13.532Z,7.22
2023-03-26T05:17:24.019Z,7.17
2023-03-26T05:20:36.317Z,8.34
2023-03-26T05:23:45.025Z,8.63
2023-03-26T05:27:01.968Z,8.81
2023-03-26T05:30:10.919Z,8.45
2023-03-26T05:33:24.398Z,7.13
2023-03-26T05:36:40.066Z,7.02
2023-03-26T05:40:11.887Z,6.04
2023-03-26T05:43:28.643Z,5.48
2023-03-26T05:46:47.581Z,6.38
2023-03-26T05:50:00.410Z,5.55
2023-03-26T05:53:16.565Z,5.33
2023-03-26T05:56:44.620Z,4.82
2023-03-26T06:00:15.630Z,5.16
2023-03-26T06:03:24.990Z,5.08
2023-03-26T06:06:55.078Z,4.86
2023-03-26T06:10:01.191Z,4.63
2023-03-26T06:13:09.329Z,5.20
2023-03-26T06:16:27.133Z,9.86
2023-03-26T06:19:54.731Z,8.64
2023-03-26T06:23:13.166Z,5.90
2023-03-26T06:26:40.465Z,7.00
2023-03-26T06:30:02.204Z,7.73
2023-03-26T06:33:26.395Z,7.00
2023-03-26T06:36:32.606Z,8.80
2023-03-26T06:39:39.575Z,7.97
2023-03-26T06:43:10.928Z,8.85
2023-03-26T06:46:37.983Z,8.96
2023-03-26T06:50:05.128Z,8.76
2023-03-26T06:53:15.403Z,7.77
2023-03-26T06:56:41.694Z,7.98
2023-03-26T07:00:14.539Z,5.46
2023-03-26T07:03:42.437Z,5.79
2023-03-26T07:07:11.009Z,5.66
2023-03-26T07:10:36.173Z,5.59
2023-03-26T07:14:08.575Z,6.58
2023-03-26T07:17:31.643Z,7.49
2023-03-26T07:20:53.750Z,9.66
2023-03-26T07:24:11.320Z,15.82
2023-03-26T07:28:01.348Z,20.84
2023-03-26T07:31:42.550Z,32.64
2023-03-26T07:35:37.022Z,20.72
2023-03-26T07:39:31.265Z,20.63
2023-03-26T07:43:11.111Z,13.72
2023-03-26T07:46:57.887Z,9.73
2023-03-26T07:50:32.880Z,8.58
2023-03-26T07:53:52.527Z,8.65
2023-03-26T07:57:55.233Z,16.40
2023-03-26T08:01:31.290Z,22.02
2023-03-26T08:05:20.031Z,22.27
2023-03-26T08:08:50.993Z,15.43
2023-03-26T08:12:31.115Z,10.21
2023-03-26T08:15:59.454Z,12.73
2023-03-26T08:19:29.384Z,27.31
2023-03-26T08:22:43.663Z,30.96
2023-03-26T08:26:07.159Z,17.65
2023-03-26T08:29:27.001Z,21.97
2023-03-26T08:32:39.206Z,21.86
2023-03-26T08:35:55.152Z,19.78
2023-03-26T08:39:02.085Z,21.63
2023-03-26T08:43:08.493Z,14.45
2023-03-26T08:47:14.925Z,8.17
2023-03-26T08:51:14.319Z,9.09
2023-03-26T08:55:20.355Z,7.95
2023-03-26T08:59:17.447Z,7.85
2023-03-26T09:02:59.106Z,9.19
2023-03-26T09:06:56.619Z,9.55
2023-03-26T09:10:48.665Z,5.15
2023-03-26T09:14:48.232Z,4.71
2023-03-26T09:19:07.030Z,10.59
2023-03-26T09:23:15.378Z,6.33
2023-03-26T09:26:29.683Z,6.83
2023-03-26T09:30:48.638Z,11.80
2023-03-26T09:34:15.913Z,7.06
2023-03-26T09:37:36.993Z,4.89
2023-03-26T09:41:21.474Z,4.55
2023-03-26T09:45:15.765Z,4.50
2023-03-26T09:49:18.508Z,4.01
2023-03-26T09:52:59.351Z,5.05
2023-03-26T09:56:38.382Z,4.63
2023-03-26T10:00:28.750Z,3.71
2023-03-26T10:04:09.376Z,3.94
2023-03-26T10:07:45.185Z,4.29
2023-03-26T10:11:03.314Z,4.17
2023-03-26T10:14:27.151Z,3.73
2023-03-26T10:18:26.782Z,4.51
2023-03-26T10:21:50.654Z,4.14
2023-03-26T10:25:41.848Z,4.27
2023-03-26T10:29:24.013Z,5.01
2023-03-26T10:33:04.968Z,5.57
2023-03-26T10:36:35.759Z,4.89
2023-03-26T10:40:10.817Z,3.93
2023-03-26T10:44:05.623Z,3.20
2023-03-26T10:47:54.139Z,3.75
2023-03-26T10:51:36.696Z,3.57
2023-03-26T10:54:59.426Z,3.68
2023-03-26T10:58:26.700Z,3.52
2023-03-26T11:01:53.331Z,2.70
2023-03-26T11:05:38.119Z,2.76
2023-03-26T11:09:08.277Z,2.61
2023-03-26T11:12:29.399Z,2.42
2023-03-26T11:15:50.315Z,2.66
2023-03-26T11:19:06.456Z,2.78
2023-03-26T11:22:33.864Z,2.62
2023-03-26T11:26:06.385Z,2.76
2023-03-26T11:29:46.110Z,2.62
2023-03-26T11:33:00.092Z,3.95
2023-03-26T11:36:15.394Z,3.25
2023-03-26T11:39:44.411Z,3.76
2023-03-26T11:43:00.432Z,3.72
2023-03-26T11:46:15.724Z,3.22
2023-03-26T11:49:26.704Z,2.92
2023-03-26T11:52:32.820Z,4.52
2023-03-26T11:55:52.847Z,3.24
2023-03-26T11:59:21.809Z,2.69
2023-03-26T12:02:52.214Z,2.82
2023-03-26T12:06:04.117Z,3.74
2023-03-26T12:09:25.002Z,5.00
2023-03-26T12:12:42.696Z,3.72
2023-03-26T12:15:49.818Z,3.52
2023-03-26T12:19:11.850Z,3.26
2023-03-26T12:22:36.568Z,2.74
2023-03-26T12:25:43.999Z,7.08
2023-03-26T12:28:54.725Z,8.97
2023-03-26T12:32:09.798Z,5.57
2023-03-26T12:35:22.458Z,6.21
2023-03-26T12:39:16.647Z,6.34
2023-03-26T12:44:46.650Z,5.64
2023-03-26T12:47:26.413Z,7.30
2023-03-26T12:49:31.637Z,7.46
2023-03-26T12:53:19.475Z,7.62
2023-03-26T12:56:40.731Z,9.17
2023-03-26T13:00:09.564Z,8.53
2023-03-26T13:03:43.541Z,7.92
2023-03-26T13:07:19.674Z,4.88
2023-03-26T13:10:51.721Z,10.43
2023-03-26T13:14:28.668Z,11.64
2023-03-26T13:17:49.234Z,8.35
2023-03-26T13:21:17.471Z,5.42
2023-03-26T13:24:47.443Z,5.34
2023-03-26T13:28:27.478Z,5.35
2023-03-26T13:32:11.878Z,5.65
2023-03-26T13:35:37.543Z,3.98
2023-03-26T13:39:15.411Z,4.36
2023-03-26T13:42:41.665Z,4.80
2023-03-26T13:46:06.199Z,3.58
2023-03-26T13:49:18.745Z,6.10
2023-03-26T13:52:35.491Z,7.67
2023-03-26T13:55:53.598Z,5.96
2023-03-26T13:59:08.870Z,5.64
2023-03-26T14:02:27.602Z,5.91
2023-03-26T14:05:42.503Z,4.42
2023-03-26T14:08:59.982Z,5.68
2023-03-26T14:12:39.414Z,4.71
2023-03-26T14:15:56.270Z,5.24
2023-03-26T14:19:36.606Z,4.56
2023-03-26T14:23:05.333Z,15.27
2023-03-26T14:26:42.647Z,21.22
2023-03-26T14:30:28.951Z,36.06
2023-03-26T14:34:08.029Z,7.54
2023-03-26T14:37:57.739Z,11.85
2023-03-26T14:41:27.398Z,21.75
2023-03-26T14:45:26.249Z,15.12
2023-03-26T14:49:32.344Z,8.39
2023-03-26T14:52:52.013Z,12.43
2023-03-26T14:56:42.001Z,19.18
2023-03-26T15:01:04.226Z,13.50
2023-03-26T15:04:52.728Z,19.91
2023-03-26T15:09:07.167Z,8.22
2023-03-26T15:12:43.417Z,15.96
2023-03-26T15:16:45.364Z,13.95
2023-03-26T15:20:48.323Z,15.94
2023-03-26T15:24:40.874Z,38.15
2023-03-26T15:28:29.728Z,35.95
2023-03-26T15:32:33.716Z,22.09
2023-03-26T15:36:37.434Z,23.23
2023-03-26T15:40:32.849Z,26.03
2023-03-26T15:44:25.630Z,42.48
2023-03-26T15:48:02.554Z,19.59
2023-03-26T15:51:49.691Z,30.30
2023-03-26T15:55:17.071Z,61.53
2023-03-26T15:58:41.067Z,12.46
2023-03-26T16:02:07.995Z,12.75
2023-03-26T16:05:43.566Z,10.98
2023-03-26T16:09:10.459Z,18.32
2023-03-26T16:12:38.847Z,13.85
2023-03-26T16:15:46.825Z,12.50
2023-03-26T16:19:52.223Z,16.20
2023-03-26T16:23:04.746Z,18.38
2023-03-26T16:26:28.890Z,15.95
2023-03-26T16:30:13.306Z,21.76
2023-03-26T16:33:35.845Z,17.41
2023-03-26T16:36:50.257Z,23.76
2023-03-26T16:39:59.603Z,25.20
2023-03-26T16:43:48.940Z,16.40
2023-03-26T16:47:35.251Z,19.80
2023-03-26T16:50:58.076Z,21.72
2023-03-26T16:54:25.310Z,18.06
2023-03-26T16:57:41.479Z,13.33
2023-03-26T17:01:00.416Z,12.36
2023-03-26T17:04:20.935Z,13.12
2023-03-26T17:07:40.358Z,20.46
2023-03-26T17:11:03.507Z,16.86
2023-03-26T17:14:31.437Z,21.25
2023-03-26T17:18:15.654Z,20.09
2023-03-26T17:21:46.869Z,16.28
2023-03-26T17:25:08.141Z,13.75
2023-03-26T17:29:00.367Z,15.47
2023-03-26T17:32:15.285Z,16.70
2023-03-26T17:35:43.082Z,16.67
2023-03-26T17:39:07.694Z,15.06
2023-03-26T17:42:28.108Z,15.27
2023-03-26T17:45:40.675Z,20.41
2023-03-26T17:49:03.083Z,24.25
2023-03-26T17:52:25.677Z,21.88
2023-03-26T17:55:41.865Z,18.66
2023-03-26T17:59:11.227Z,14.76
2023-03-26T18:02:42.455Z,24.90
2023-03-26T18:06:12.291Z,18.83
2023-03-26T18:09:51.288Z,25.03
2023-03-26T18:13:41.607Z,43.55
2023-03-26T18:17:06.568Z,27.29
2023-03-26T18:20:36.818Z,38.94
2023-03-26T18:23:52.406Z,27.01
2023-03-26T18:27:04.862Z,28.67
2023-03-26T18:30:26.472Z,31.19
2023-03-26T18:33:46.545Z,24.57
2023-03-26T18:37:18.315Z,27.05
2023-03-26T18:40:35.897Z,32.96
2023-03-26T18:43:48.202Z,32.83
2023-03-26T18:46:58.527Z,32.08
2023-03-26T18:50:06.173Z,33.50
2023-03-26T18:53:22.224Z,28.20
2023-03-26T18:56:36.432Z,31.46
2023-03-26T18:59:47.371Z,28.08
2023-03-26T19:03:08.178Z,19.35
2023-03-26T19:06:21.240Z,20.61
2023-03-26T19:09:32.426Z,20.54
2023-03-26T19:12:41.687Z,16.11
2023-03-26T19:15:52.943Z,22.06
2023-03-26T19:19:14.353Z,18.98
2023-03-26T19:22:26.548Z,22.98
2023-03-26T19:25:41.807Z,28.67
2023-03-26T19:28:54.869Z,21.64
2023-03-26T19:32:07.933Z,17.76
2023-03-26T19:35:26.678Z,13.74
2023-03-26T19:38:45.768Z,15.34
2023-03-26T19:41:55.981Z,12.93
2023-03-26T19:45:18.616Z,12.15
2023-03-26T19:48:59.525Z,10.06
2023-03-26T19:52:18.458Z,9.41
2023-03-26T19:55:30.526Z,10.06
2023-03-26T19:58:36.635Z,11.33
2023-03-26T20:01:44.325Z,14.42
2023-03-26T20:04:51.001Z,12.86
2023-03-26T20:08:19.116Z,12.25
2023-03-26T20:11:33.610Z,14.08
2023-03-26T20:14:40.452Z,14.15
2023-03-26T20:17:50.349Z,16.32
2023-03-26T20:20:57.831Z,17.53
2023-03-26T20:24:16.654Z,20.54
2023-03-26T20:27:28.932Z,20.28
2023-03-26T20:30:37.879Z,16.03
2023-03-26T20:33:45.608Z,18.03
2023-03-26T20:36:55.575Z,17.66
2023-03-26T20:40:12.608Z,20.06
2023-03-26T20:43:22.057Z,21.28
2023-03-26T20:46:31.903Z,22.80
2023-03-26T20:49:38.042Z,22.93
2023-03-26T20:52:46.548Z,26.70
2023-03-26T20:55:55.196Z,34.20
2023-03-26T20:59:11.084Z,45.48
2023-03-26T21:02:18.609Z,40.36
2023-03-26T21:05:32.893Z,31.44
2023-03-26T21:08:40.076Z,32.58
2023-03-26T21:12:11.517Z,37.97
2023-03-26T21:15:23.437Z,37.05
2023-03-26T21:18:34.779Z,33.99
2023-03-26T21:22:00.201Z,27.95
2023-03-26T21:25:38.866Z,24.20
2023-03-26T21:28:54.870Z,22.37
2023-03-26T21:32:03.213Z,24.11
2023-03-26T21:35:11.767Z,22.97
2023-03-26T21:38:23.250Z,24.32
2023-03-26T21:41:41.543Z,22.18
2023-03-26T21:44:52.322Z,20.90
2023-03-26T21:48:17.660Z,24.38
2023-03-26T21:51:43.084Z,45.47
2023-03-26T21:54:50.064Z,20.10
2023-03-26T21:58:31.841Z,18.85
2023-03-26T22:01:54.910Z,15.45
2023-03-26T22:05:15.560Z,19.03
2023-03-26T22:08:32.844Z,18.25
2023-03-26T22:11:39.674Z,18.09
2023-03-26T22:14:46.081Z,17.03
2023-03-26T22:18:04.907Z,15.44
2023-03-26T22:21:11.341Z,14.12
2023-03-26T22:24:18.132Z,13.51
2023-03-26T22:27:24.154Z,12.48
2023-03-26T22:30:31.329Z,13.19
2023-03-26T22:33:41.037Z,14.32
2023-03-26T22:36:47.920Z,12.77
2023-03-26T22:39:53.789Z,12.27
2023-03-26T22:43:00.616Z,11.67
2023-03-26T22:46:11.082Z,11.71
2023-03-26T22:49:21.663Z,10.99
2023-03-26T22:52:27.822Z,12.59
2023-03-26T22:55:34.589Z,12.91
2023-03-26T22:58:41.108Z,13.63
2023-03-26T23:01:48.167Z,13.58
2023-03-26T23:04:56.890Z,12.25
2023-03-26T23:08:03.922Z,12.11
2023-03-26T23:11:16.453Z,12.31
2023-03-26T23:14:23.475Z,13.17
2023-03-26T23:17:29.461Z,13.88
2023-03-26T23:20:40.316Z,13.97
2023-03-26T23:23:46.462Z,13.21
2023-03-26T23:26:53.497Z,13.79
2023-03-26T23:29:59.616Z,14.91
2023-03-26T23:33:06.623Z,15.33
2023-03-26T23:36:18.900Z,15.39
2023-03-26T23:39:26.935Z,16.73
2023-03-26T23:42:34.757Z,16.65
2023-03-26T23:45:41.895Z,14.42
2023-03-26T23:48:52.354Z,15.68
2023-03-26T23:52:02.280Z,17.75
2023-03-26T23:55:09.742Z,18.21
2023-03-26T23:58:17.632Z,18.93
